Time;durP1;ratioP1;P1;durP2;ratioP2;P2;SDS_P1;SDS_P2;PMS_P1;PMS_P2;Temp;Humidity;BMP_temperature;BMP_pressure;BME280_temperature;BME280_humidity;BME280_pressure;Samples;Min_cycle;Max_cycle;Signal;HPM_P1;HPM_P2
2024/01/09 00:01:22;;;;;;;;;;;;;;;-10.08;56.32;102483.21;109742;1285;22415;-80
2024/01/09 00:03:49;;;;;;;;;;;;;;;-10.05;56.45;102474.62;109940;1278;22448;-82
2024/01/09 00:06:16;;;;;;;;;;;;;;;-10.01;56.57;102470.11;109842;1284;22437;-80
2024/01/09 00:08:45;;;;;;;;;;;;;;;-9.99;56.42;102467.82;109791;1284;22452;-84
2024/01/09 00:11:13;;;;;;;;;;;;;;;-9.95;56.50;102465.63;109783;1284;22424;-83
2024/01/09 00:13:40;;;;;;;;;;;;;;;-9.85;56.67;102466.86;109893;1285;22447;-82
2024/01/09 00:16:08;;;;;;;;;;;;;;;-9.80;56.22;102464.02;109789;1284;22428;-82
2024/01/09 00:18:35;;;;;;;;;;;;;;;-9.81;56.22;102460.27;109781;1285;23250;-82
2024/01/09 00:21:02;;;;;;;;;;;;;;;-9.80;56.29;102459.72;109871;1280;22548;-82
2024/01/09 00:23:30;;;;;;;;;;;;;;;-9.75;56.39;102464.70;109931;1278;22421;-82
2024/01/09 00:26:00;;;;;;;;;;;;;;;-9.74;56.29;102464.83;109804;1285;23085;-82
2024/01/09 00:28:29;;;;;;;;;;;;;;;-9.74;56.21;102463.21;109856;1280;22496;-81
2024/01/09 00:30:56;;;;;;;;;;;;;;;-9.73;56.40;102460.87;109861;1283;22416;-82
2024/01/09 00:33:24;;;;;;;;;;;;;;;-9.69;56.35;102456.13;109793;1285;22452;-82
2024/01/09 00:35:51;;;;;;;;;;;;;;;-9.65;56.37;102453.79;109782;1285;22465;-82
2024/01/09 00:38:18;;;;;;;;;;;;;;;-9.63;56.40;102456.54;109793;1285;22477;-81
2024/01/09 00:40:46;;;;;;;;;;;;;;;-9.58;56.30;102455.92;109555;1282;23455;-86
2024/01/09 00:43:13;;;;;;;;;;;;;;;-9.53;56.15;102455.04;109596;1283;22428;-83
2024/01/09 00:45:40;;;;;;;;;;;;;;;-9.54;56.26;102449.49;109398;1290;22439;-81
2024/01/09 00:48:07;;;;;;;;;;;;;;;-9.55;56.24;102449.58;109461;1290;23119;-81
2024/01/09 00:50:34;;;;;;;;;;;;;;;-9.57;56.03;102450.18;109398;1290;22503;-80
2024/01/09 00:53:02;;;;;;;;;;;;;;;-9.61;56.13;102447.45;109282;1290;22429;-81
2024/01/09 00:55:29;;;;;;;;;;;;;;;-9.62;56.18;102452.54;109549;1286;22387;-81
2024/01/09 00:57:56;;;;;;;;;;;;;;;-9.64;56.32;102453.04;109406;1290;22425;-81
2024/01/09 01:00:24;;;;;;;;;;;;;;;-9.66;56.09;102456.01;109269;1290;22456;-81
2024/01/09 01:02:51;;;;;;;;;;;;;;;-9.69;56.13;102460.38;109327;1283;23228;-81
2024/01/09 01:05:18;;;;;;;;;;;;;;;-9.70;56.15;102457.02;109709;1284;22507;-81
2024/01/09 01:07:46;;;;;;;;;;;;;;;-9.71;56.01;102453.32;109424;1291;22471;-81
2024/01/09 01:10:13;;;;;;;;;;;;;;;-9.73;56.11;102454.00;109451;1291;22696;-81
2024/01/09 01:12:46;;;;;;;;;;;;;;;-9.71;56.01;102453.71;109392;1290;22479;-82
2024/01/09 01:15:13;;;;;;;;;;;;;;;-9.66;56.03;102454.67;109538;1291;22411;-81
2024/01/09 01:17:40;;;;;;;;;;;;;;;-9.60;56.17;102456.88;109372;1286;22475;-82
2024/01/09 01:20:09;;;;;;;;;;;;;;;-9.54;56.02;102458.58;109429;1284;22526;-81
2024/01/09 01:22:37;;;;;;;;;;;;;;;-9.48;55.98;102459.05;109389;1286;22515;-80
2024/01/09 01:25:04;;;;;;;;;;;;;;;-9.38;56.09;102463.79;109701;1285;22433;-80
2024/01/09 01:27:31;;;;;;;;;;;;;;;-9.34;55.81;102468.41;109767;1285;22428;-81
2024/01/09 01:29:58;;;;;;;;;;;;;;;-9.38;55.58;102466.53;109825;1279;22376;-81
2024/01/09 01:32:25;;;;;;;;;;;;;;;-9.46;55.37;102465.48;109951;1275;22438;-82
2024/01/09 01:34:52;;;;;;;;;;;;;;;-9.51;55.62;102468.08;110123;1274;23122;-86
2024/01/09 01:37:19;;;;;;;;;;;;;;;-9.50;55.83;102466.27;110108;1279;23170;-81
2024/01/09 01:39:46;;;;;;;;;;;;;;;-9.44;56.06;102464.85;110123;1279;22395;-80
2024/01/09 01:42:13;;;;;;;;;;;;;;;-9.40;55.97;102460.92;110101;1277;22992;-81
2024/01/09 01:44:40;;;;;;;;;;;;;;;-9.41;55.88;102462.58;110180;1279;22378;-80
2024/01/09 01:47:09;;;;;;;;;;;;;;;-9.41;56.18;102465.79;110146;1280;22354;-81
2024/01/09 01:49:37;;;;;;;;;;;;;;;-9.42;56.15;102464.88;110072;1278;22407;-82
2024/01/09 01:52:04;;;;;;;;;;;;;;;-9.45;55.93;102464.56;110080;1278;22386;-79
2024/01/09 01:54:32;;;;;;;;;;;;;;;-9.51;56.15;102468.53;110196;1279;23170;-81
2024/01/09 01:57:00;;;;;;;;;;;;;;;-9.52;56.13;102473.22;110210;1279;22408;-81
2024/01/09 01:59:27;;;;;;;;;;;;;;;-9.58;56.26;102475.17;110244;1273;22392;-83
2024/01/09 02:01:54;;;;;;;;;;;;;;;-9.66;56.26;102476.31;110061;1279;22425;-84
2024/01/09 02:04:21;;;;;;;;;;;;;;;-9.75;56.30;102478.12;110345;1273;22374;-80
2024/01/09 02:06:48;;;;;;;;;;;;;;;-9.73;56.64;102480.13;110147;1278;22476;-81
2024/01/09 02:09:16;;;;;;;;;;;;;;;-9.68;56.60;102480.59;110181;1278;22447;-81
2024/01/09 02:11:43;;;;;;;;;;;;;;;-9.64;56.41;102478.09;110224;1273;22415;-80
2024/01/09 02:14:11;;;;;;;;;;;;;;;-9.58;56.61;102479.98;109864;1283;23261;-81
2024/01/09 02:16:39;;;;;;;;;;;;;;;-9.52;56.75;102481.27;109912;1281;22438;-81
2024/01/09 02:19:06;;;;;;;;;;;;;;;-9.45;56.67;102479.37;109923;1284;22529;-80
2024/01/09 02:21:34;;;;;;;;;;;;;;;-9.40;56.59;102481.48;109438;1286;23166;-80
2024/01/09 02:24:01;;;;;;;;;;;;;;;-9.37;56.52;102482.13;109541;1289;22528;-80
2024/01/09 02:26:30;;;;;;;;;;;;;;;-9.34;56.30;102482.23;108863;1296;22436;-80
2024/01/09 02:29:22;;;;;;;;;;;;;;;-9.40;56.20;102484.58;108908;1296;22469;-81
2024/01/09 02:31:49;;;;;;;;;;;;;;;-9.39;56.37;102485.45;108970;1290;22433;-80
2024/01/09 02:34:17;;;;;;;;;;;;;;;-9.35;56.34;102480.93;109436;1290;23220;-81
2024/01/09 02:36:44;;;;;;;;;;;;;;;-9.34;56.48;102483.95;109430;1290;23381;-81
2024/01/09 02:39:11;;;;;;;;;;;;;;;-9.32;56.70;102482.62;109634;1285;23321;-81
2024/01/09 02:41:39;;;;;;;;;;;;;;;-9.31;56.61;102480.19;109575;1289;22425;-80
2024/01/09 02:44:06;;;;;;;;;;;;;;;-9.36;56.39;102483.24;109632;1284;22505;-80
2024/01/09 02:46:33;;;;;;;;;;;;;;;-9.44;56.68;102485.17;109796;1284;22400;-79
2024/01/09 02:49:00;;;;;;;;;;;;;;;-9.54;56.64;102481.88;109890;1279;22363;-85
2024/01/09 02:51:27;;;;;;;;;;;;;;;-9.69;56.62;102481.90;109825;1284;22387;-80
2024/01/09 02:53:54;;;;;;;;;;;;;;;-9.84;56.65;102480.11;109773;1284;22452;-79
2024/01/09 02:56:23;;;;;;;;;;;;;;;-10.15;56.72;102476.98;109850;1284;22621;-79
2024/01/09 02:58:50;;;;;;;;;;;;;;;-10.26;57.46;102475.80;109968;1278;22431;-80
2024/01/09 03:01:17;;;;;;;;;;;;;;;-10.23;57.97;102479.59;110385;1275;23084;-80
2024/01/09 03:03:44;;;;;;;;;;;;;;;-10.11;58.17;102477.77;110207;1278;22397;-80
2024/01/09 03:06:11;;;;;;;;;;;;;;;-10.01;58.15;102478.98;110402;1274;23025;-81
2024/01/09 03:08:38;;;;;;;;;;;;;;;-9.93;58.21;102477.84;110146;1278;22352;-79
2024/01/09 03:11:06;;;;;;;;;;;;;;;-9.81;58.27;102483.04;110170;1278;22422;-80
2024/01/09 03:13:34;;;;;;;;;;;;;;;-9.72;58.07;102482.59;110224;1276;22511;-82
2024/01/09 03:16:01;;;;;;;;;;;;;;;-9.62;58.27;102481.35;110169;1278;22448;-85
2024/01/09 03:18:28;;;;;;;;;;;;;;;-9.55;58.04;102482.86;110207;1278;22457;-81
2024/01/09 03:20:55;;;;;;;;;;;;;;;-9.50;57.99;102482.30;110164;1278;22408;-80
2024/01/09 03:23:22;;;;;;;;;;;;;;;-9.45;58.12;102484.02;110432;1270;23123;-80
2024/01/09 03:25:49;;;;;;;;;;;;;;;-9.38;58.11;102485.10;110045;1278;22386;-81
2024/01/09 03:28:16;;;;;;;;;;;;;;;-9.29;58.20;102487.06;110166;1276;22362;-81
2024/01/09 03:30:43;;;;;;;;;;;;;;;-9.27;57.99;102483.34;110187;1278;22349;-82
2024/01/09 03:33:11;;;;;;;;;;;;;;;-9.30;58.31;102484.70;110155;1278;22424;-83
2024/01/09 03:35:39;;;;;;;;;;;;;;;-9.28;58.19;102489.33;109805;1286;22440;-81
2024/01/09 03:38:06;;;;;;;;;;;;;;;-9.32;58.10;102487.14;109842;1281;22428;-82
2024/01/09 03:40:36;;;;;;;;;;;;;;;-9.41;58.28;102484.30;109844;1286;23242;-82
2024/01/09 03:43:07;;;;;;;;;;;;;;;-9.47;58.40;102485.59;109796;1286;22448;-84
2024/01/09 03:45:34;;;;;;;;;;;;;;;-9.42;58.84;102485.73;109789;1284;22412;-82
2024/01/09 03:48:01;;;;;;;;;;;;;;;-9.37;59.00;102482.02;109647;1286;22469;-82
2024/01/09 03:50:28;;;;;;;;;;;;;;;-9.43;58.47;102483.55;109782;1285;23102;-81
2024/01/09 03:52:55;;;;;;;;;;;;;;;-9.54;58.54;102482.10;109826;1278;23195;-81
2024/01/09 03:55:25;;;;;;;;;;;;;;;-9.52;58.94;102482.41;110138;1277;22991;-81
2024/01/09 03:57:52;;;;;;;;;;;;;;;-9.56;58.63;102482.40;110177;1276;22427;-80
2024/01/09 04:00:19;;;;;;;;;;;;;;;-9.66;58.81;102483.91;110166;1278;22382;-81
2024/01/09 04:02:46;;;;;;;;;;;;;;;-9.69;58.68;102482.02;109912;1278;22422;-81
2024/01/09 04:05:13;;;;;;;;;;;;;;;-9.73;58.82;102482.52;109931;1284;22434;-81
2024/01/09 04:07:40;;;;;;;;;;;;;;;-9.67;59.07;102484.45;109907;1284;22699;-81
2024/01/09 04:10:08;;;;;;;;;;;;;;;-9.67;58.85;102482.70;109912;1284;22489;-85
2024/01/09 04:12:35;;;;;;;;;;;;;;;-9.75;58.77;102481.91;109820;1284;22884;-82
2024/01/09 04:15:03;;;;;;;;;;;;;;;-9.72;59.35;102483.47;109885;1284;22492;-80
2024/01/09 04:17:30;;;;;;;;;;;;;;;-9.70;59.36;102483.96;109982;1284;22412;-79
2024/01/09 04:19:57;;;;;;;;;;;;;;;-9.69;59.42;102480.52;109996;1278;22473;-81
2024/01/09 04:22:25;;;;;;;;;;;;;;;-9.73;59.04;102485.18;109825;1286;22590;-82
2024/01/09 04:24:52;;;;;;;;;;;;;;;-9.84;59.02;102483.54;109847;1284;22435;-82
2024/01/09 04:27:19;;;;;;;;;;;;;;;-9.90;59.07;102478.06;109811;1279;22448;-81
2024/01/09 04:29:46;;;;;;;;;;;;;;;-9.88;58.89;102480.12;109824;1285;23217;-80
2024/01/09 04:32:13;;;;;;;;;;;;;;;-9.90;58.92;102477.59;109723;1286;22423;-81
2024/01/09 04:34:40;;;;;;;;;;;;;;;-9.94;58.75;102475.66;109422;1291;23310;-81
2024/01/09 04:37:07;;;;;;;;;;;;;;;-9.92;58.97;102473.30;109369;1291;22450;-81
2024/01/09 04:39:34;;;;;;;;;;;;;;;-9.85;59.17;102476.26;109426;1289;22407;-80
2024/01/09 04:42:01;;;;;;;;;;;;;;;-9.77;59.14;102475.06;108773;1296;23251;-81
2024/01/09 04:44:29;;;;;;;;;;;;;;;-9.77;58.37;102475.42;108797;1295;23223;-81
2024/01/09 04:46:56;;;;;;;;;;;;;;;-9.81;58.36;102473.75;109279;1288;22435;-80
2024/01/09 04:49:24;;;;;;;;;;;;;;;-9.79;58.25;102476.06;109637;1288;22566;-81
2024/01/09 04:51:51;;;;;;;;;;;;;;;-9.89;58.04;102476.13;109599;1285;23356;-79
2024/01/09 04:54:18;;;;;;;;;;;;;;;-9.92;58.26;102470.41;109414;1290;22428;-80
2024/01/09 04:56:45;;;;;;;;;;;;;;;-9.85;58.53;102475.08;109670;1290;22450;-80
2024/01/09 04:59:12;;;;;;;;;;;;;;;-9.84;58.12;102481.45;109743;1285;22464;-87
2024/01/09 05:01:39;;;;;;;;;;;;;;;-9.96;58.01;102478.14;109939;1286;23227;-81
2024/01/09 05:04:06;;;;;;;;;;;;;;;-10.11;57.94;102473.72;109928;1284;22665;-81
2024/01/09 05:06:36;;;;;;;;;;;;;;;-10.18;58.32;102477.56;109907;1284;22459;-80
2024/01/09 05:09:04;;;;;;;;;;;;;;;-10.30;58.18;102477.77;109840;1277;22540;-82
2024/01/09 05:11:32;;;;;;;;;;;;;;;-10.49;58.25;102474.19;109930;1278;22423;-80
2024/01/09 05:13:59;;;;;;;;;;;;;;;-10.59;58.37;102472.98;110173;1275;22478;-81
2024/01/09 05:16:27;;;;;;;;;;;;;;;-10.67;58.73;102476.03;110082;1275;22350;-81
2024/01/09 05:18:54;;;;;;;;;;;;;;;-10.84;58.63;102473.52;110121;1278;22363;-81
2024/01/09 05:21:21;;;;;;;;;;;;;;;-11.00;58.88;102482.84;110415;1272;22463;-81
2024/01/09 05:23:48;;;;;;;;;;;;;;;-11.13;58.96;102480.70;110178;1278;22418;-81
2024/01/09 05:26:16;;;;;;;;;;;;;;;-11.22;59.34;102484.62;110451;1272;22571;-81
2024/01/09 05:28:46;;;;;;;;;;;;;;;-11.33;59.34;102486.64;110463;1278;22359;-81
2024/01/09 05:31:13;;;;;;;;;;;;;;;-11.35;59.67;102488.44;110163;1278;22370;-87
2024/01/09 05:33:40;;;;;;;;;;;;;;;-11.24;59.98;102490.39;110070;1278;22391;-80
2024/01/09 05:36:08;;;;;;;;;;;;;;;-11.11;60.07;102489.08;110241;1277;22364;-80
2024/01/09 05:38:35;;;;;;;;;;;;;;;-11.05;59.82;102487.19;110250;1270;22424;-81
2024/01/09 05:41:02;;;;;;;;;;;;;;;-11.06;59.83;102487.98;110383;1275;22412;-80
2024/01/09 05:43:29;;;;;;;;;;;;;;;-10.96;59.80;102485.44;110337;1278;22444;-82
2024/01/09 05:45:56;;;;;;;;;;;;;;;-10.92;59.70;102483.68;110125;1274;22382;-82
2024/01/09 05:48:23;;;;;;;;;;;;;;;-10.85;59.87;102484.48;109752;1278;22489;-81
2024/01/09 05:50:52;;;;;;;;;;;;;;;-10.83;59.53;102484.55;109943;1278;22424;-81
2024/01/09 05:53:19;;;;;;;;;;;;;;;-10.76;59.76;102486.14;109825;1286;22469;-81
2024/01/09 05:55:46;;;;;;;;;;;;;;;-10.70;59.61;102487.33;109757;1286;23585;-82
2024/01/09 05:58:14;;;;;;;;;;;;;;;-10.72;59.12;102489.35;109848;1285;22384;-82
2024/01/09 06:00:42;;;;;;;;;;;;;;;-10.69;59.22;102490.14;109760;1286;22440;-82
2024/01/09 06:03:09;;;;;;;;;;;;;;;-10.71;59.26;102490.55;109772;1285;22417;-81
2024/01/09 06:05:36;;;;;;;;;;;;;;;-10.80;59.27;102497.91;109846;1284;22478;-80
2024/01/09 06:08:04;;;;;;;;;;;;;;;-10.74;59.49;102499.29;109887;1285;22424;-81
2024/01/09 06:10:31;;;;;;;;;;;;;;;-10.68;59.63;102500.48;109728;1286;23275;-81
2024/01/09 06:12:59;;;;;;;;;;;;;;;-10.61;59.37;102507.11;109988;1278;22428;-82
2024/01/09 06:15:26;;;;;;;;;;;;;;;-10.52;59.54;102508.14;110154;1278;22427;-81
2024/01/09 06:17:54;;;;;;;;;;;;;;;-10.43;59.41;102508.73;110207;1272;22407;-80
2024/01/09 06:20:22;;;;;;;;;;;;;;;-10.42;59.22;102510.54;110093;1278;22483;-81
2024/01/09 06:22:49;;;;;;;;;;;;;;;-10.40;59.09;102508.91;110185;1278;22433;-82
2024/01/09 06:25:16;;;;;;;;;;;;;;;-10.29;59.25;102516.38;110163;1266;23108;-81
2024/01/09 06:27:43;;;;;;;;;;;;;;;-10.17;59.13;102520.02;110155;1278;22458;-81
2024/01/09 06:30:10;;;;;;;;;;;;;;;-10.15;58.96;102519.98;110415;1278;22344;-83
2024/01/09 06:32:37;;;;;;;;;;;;;;;-10.13;58.95;102519.27;110208;1278;22386;-82
2024/01/09 06:35:05;;;;;;;;;;;;;;;-10.06;58.95;102518.64;110203;1276;23145;-81
2024/01/09 06:37:32;;;;;;;;;;;;;;;-10.02;58.88;102518.23;110191;1278;22403;-81
2024/01/09 06:39:59;;;;;;;;;;;;;;;-9.94;58.98;102519.29;109914;1284;23146;-81
2024/01/09 06:42:26;;;;;;;;;;;;;;;-9.90;58.92;102512.66;109953;1284;22554;-82
2024/01/09 06:44:52;;;;;;;;;;;;;;;-10.03;58.05;102512.71;109962;1280;23194;-81
2024/01/09 06:47:19;;;;;;;;;;;;;;;-10.25;57.98;102514.98;109929;1284;22387;-81
2024/01/09 06:49:47;;;;;;;;;;;;;;;-10.42;58.31;102519.15;109937;1281;22416;-83
2024/01/09 06:52:18;;;;;;;;;;;;;;;-10.50;58.61;102516.70;109857;1284;22570;-82
2024/01/09 06:54:45;;;;;;;;;;;;;;;-10.49;59.02;102519.05;109958;1284;23324;-84
2024/01/09 06:57:13;;;;;;;;;;;;;;;-10.53;58.85;102521.90;109971;1278;22632;-85
2024/01/09 06:59:43;;;;;;;;;;;;;;;-10.51;58.93;102523.60;109912;1284;22391;-85
2024/01/09 07:02:10;;;;;;;;;;;;;;;-10.45;59.43;102525.56;109643;1288;22471;-85
2024/01/09 07:04:38;;;;;;;;;;;;;;;-10.44;58.91;102531.98;109577;1284;22420;-87
2024/01/09 07:07:06;;;;;;;;;;;;;;;-10.53;58.80;102535.08;109675;1288;22385;-87
2024/01/09 07:31:19;;;;;;;;;;;;;;;-10.28;58.64;102547.98;110043;1270;1098639;-86
2024/01/09 07:33:47;;;;;;;;;;;;;;;-10.34;58.71;102551.65;110594;1258;22553;-85
2024/01/09 07:36:38;;;;;;;;;;;;;;;-10.33;58.74;102553.25;109035;1260;24081;-86
2024/01/09 07:39:13;;;;;;;;;;;;;;;-10.37;58.77;102553.14;109604;1257;22514;-87
2024/01/09 07:43:09;;;;;;;;;;;;;;;-10.55;58.52;102552.96;109682;1257;22511;-87
2024/01/09 07:46:19;;;;;;;;;;;;;;;-10.74;59.14;102557.02;109840;1257;25403;-82
2024/01/09 07:49:06;;;;;;;;;;;;;;;-10.72;59.54;102563.35;109560;1247;22475;-86
2024/01/09 07:52:54;;;;;;;;;;;;;;;-10.51;59.85;102562.27;108415;1267;22978;-86
2024/01/09 07:56:17;;;;;;;;;;;;;;;-10.31;59.95;102561.03;108561;1267;23327;-81
2024/01/09 08:03:06;;;;;;;;;;;;;;;-10.10;59.20;102562.94;108436;1270;25297;-89
2024/01/09 08:06:21;;;;;;;;;;;;;;;-10.01;59.13;102561.47;108558;1270;23968;-88
2024/01/09 08:09:11;;;;;;;;;;;;;;;-9.93;58.85;102561.21;108183;1270;24207;-83
2024/01/09 08:11:58;;;;;;;;;;;;;;;-9.70;60.07;102565.48;108473;1266;26700;-85
2024/01/09 08:14:26;;;;;;;;;;;;;;;-9.46;60.39;102566.45;111403;1266;22561;-87
2024/01/09 08:16:54;;;;;;;;;;;;;;;-9.25;60.21;102568.05;111370;1264;22418;-83
2024/01/09 08:19:20;;;;;;;;;;;;;;;-9.13;59.84;102565.02;111661;1264;23164;-84
2024/01/09 08:21:49;;;;;;;;;;;;;;;-8.95;59.59;102565.22;111664;1263;22397;-85
2024/01/09 08:24:18;;;;;;;;;;;;;;;-8.76;59.40;102563.95;111922;1256;22421;-85
2024/01/09 08:26:49;;;;;;;;;;;;;;;-8.65;58.53;102562.09;112399;1256;23185;-86
2024/01/09 08:29:16;;;;;;;;;;;;;;;-8.60;58.15;102562.65;112502;1248;23166;-85
2024/01/09 08:31:45;;;;;;;;;;;;;;;-8.53;57.88;102563.09;113040;1248;23197;-84
2024/01/09 08:34:12;;;;;;;;;;;;;;;-8.49;57.61;102564.02;112659;1253;22846;-86
2024/01/09 08:36:42;;;;;;;;;;;;;;;-8.46;57.25;102563.36;112596;1253;22400;-86
2024/01/09 08:39:13;;;;;;;;;;;;;;;-8.49;56.95;102569.69;112649;1252;22429;-85
2024/01/09 08:41:41;;;;;;;;;;;;;;;-8.53;56.75;102572.39;112723;1253;22416;-87
2024/01/09 08:44:10;;;;;;;;;;;;;;;-8.60;56.94;102566.25;112632;1253;22429;-85
2024/01/09 08:46:38;;;;;;;;;;;;;;;-8.56;56.89;102569.69;112753;1253;22406;-87
2024/01/09 08:49:05;;;;;;;;;;;;;;;-8.52;56.72;102564.89;112696;1253;22444;-87
2024/01/09 08:51:35;;;;;;;;;;;;;;;-8.50;56.51;102569.20;112400;1254;22402;-87
2024/01/09 08:54:02;;;;;;;;;;;;;;;-8.44;56.45;102571.83;112282;1260;23186;-86
2024/01/09 08:56:28;;;;;;;;;;;;;;;-8.35;56.35;102568.05;112246;1259;22414;-85
2024/01/09 08:58:58;;;;;;;;;;;;;;;-8.26;56.43;102573.56;112310;1260;22400;-86
2024/01/09 09:01:32;;;;;;;;;;;;;;;-8.02;56.73;102576.09;112354;1260;22468;-86
2024/01/09 09:04:07;;;;;;;;;;;;;;;-7.84;56.05;102575.16;111992;1263;22379;-85
2024/01/09 09:06:35;;;;;;;;;;;;;;;-7.79;55.56;102565.90;111406;1260;22496;-85
2024/01/09 09:09:04;;;;;;;;;;;;;;;-7.68;56.08;102564.62;111418;1265;22422;-84
2024/01/09 09:14:29;;;;;;;;;;;;;;;-7.35;55.36;102563.22;106892;1312;557187;-83
2024/01/09 09:16:58;;;;;;;;;;;;;;;-7.32;55.34;102558.67;109677;1286;22583;-85
2024/01/09 09:19:52;;;;;;;;;;;;;;;-7.28;55.07;102557.38;108960;1287;22523;-85
2024/01/09 09:22:23;;;;;;;;;;;;;;;-7.22;54.95;102556.11;107437;1288;22528;-87
2024/01/09 09:24:58;;;;;;;;;;;;;;;-7.08;55.08;102551.47;107425;1288;22579;-83
2024/01/09 09:27:25;;;;;;;;;;;;;;;-6.91;55.38;102551.04;106837;1286;249906;-84
2024/01/09 09:29:56;;;;;;;;;;;;;;;-6.81;54.73;102554.23;106775;1292;22530;-82
